createdAt,value
2018-02-15T00:02:16.606Z,23.80
2018-02-15T00:04:44.646Z,24.10
2018-02-15T00:07:12.590Z,26.05
2018-02-15T00:09:40.594Z,23.02
2018-02-15T00:12:08.551Z,23.55
2018-02-15T00:14:36.454Z,24.52
2018-02-15T00:17:04.531Z,25.00
2018-02-15T00:19:32.574Z,25.55
2018-02-15T00:22:01.558Z,27.77
2018-02-15T00:24:29.477Z,23.92
2018-02-15T00:26:57.874Z,26.85
2018-02-15T00:29:25.816Z,27.67
2018-02-15T00:31:53.830Z,26.15
2018-02-15T00:34:21.761Z,27.17
2018-02-15T00:36:49.701Z,27.40
2018-02-15T00:39:17.649Z,25.15
2018-02-15T00:41:45.660Z,27.45
2018-02-15T00:44:13.741Z,26.50
2018-02-15T00:46:41.718Z,26.23
2018-02-15T00:49:09.700Z,27.00
2018-02-15T00:51:37.716Z,28.12
2018-02-15T00:54:05.666Z,28.65
2018-02-15T00:56:33.694Z,24.73
2018-02-15T00:59:01.594Z,27.30
2018-02-15T01:01:29.510Z,25.30
2018-02-15T01:03:57.494Z,27.50
2018-02-15T01:06:25.413Z,25.12
2018-02-15T01:08:53.437Z,25.40
2018-02-15T01:11:21.578Z,29.23
2018-02-15T01:13:49.534Z,26.40
2018-02-15T01:16:17.517Z,26.23
2018-02-15T01:18:45.581Z,28.15
2018-02-15T01:21:13.513Z,27.35
2018-02-15T01:23:41.533Z,27.02
2018-02-15T01:26:09.541Z,26.02
2018-02-15T01:28:37.453Z,27.60
2018-02-15T01:31:05.385Z,30.30
2018-02-15T01:33:33.462Z,25.45
2018-02-15T01:36:01.365Z,27.92
2018-02-15T01:38:29.340Z,27.40
2018-02-15T01:40:57.244Z,27.40
2018-02-15T01:43:25.281Z,29.15
2018-02-15T01:45:53.209Z,28.52
2018-02-15T01:48:21.122Z,28.50
2018-02-15T01:50:49.077Z,29.05
2018-02-15T01:53:17.002Z,29.37
2018-02-15T01:55:44.957Z,28.12
2018-02-15T01:58:12.889Z,27.42
2018-02-15T02:00:40.797Z,29.60
2018-02-15T02:03:08.727Z,27.42
2018-02-15T02:05:36.966Z,26.95
2018-02-15T02:08:04.893Z,27.25
2018-02-15T02:10:32.800Z,28.35
2018-02-15T02:13:00.721Z,29.12
2018-02-15T02:15:28.637Z,29.85
2018-02-15T02:17:56.624Z,29.35
2018-02-15T02:20:24.632Z,31.55
2018-02-15T02:22:52.562Z,26.75
2018-02-15T02:25:20.497Z,28.05
2018-02-15T02:27:48.433Z,28.50
2018-02-15T02:30:16.381Z,29.27
2018-02-15T02:32:44.520Z,29.35
2018-02-15T02:35:12.437Z,31.75
2018-02-15T02:37:40.405Z,28.62
2018-02-15T02:40:08.326Z,26.98
2018-02-15T02:42:36.254Z,29.42
2018-02-15T02:45:04.201Z,29.83
2018-02-15T02:47:32.147Z,28.50
2018-02-15T02:50:00.134Z,29.45
2018-02-15T02:52:28.169Z,32.17
2018-02-15T02:54:56.077Z,31.10
2018-02-15T02:57:23.990Z,32.22
2018-02-15T02:59:51.915Z,33.15
2018-02-15T03:02:19.972Z,30.15
2018-02-15T03:04:47.977Z,29.45
2018-02-15T03:07:15.941Z,32.53
2018-02-15T03:09:44.033Z,31.52
2018-02-15T03:12:12.190Z,31.75
2018-02-15T03:14:40.128Z,28.50
2018-02-15T03:17:08.044Z,31.23
2018-02-15T03:19:35.975Z,31.83
2018-02-15T03:22:03.940Z,33.67
2018-02-15T03:24:32.249Z,33.15
2018-02-15T03:27:00.188Z,28.80
2018-02-15T03:29:28.097Z,31.80
2018-02-15T03:31:56.029Z,34.05
2018-02-15T03:34:23.944Z,30.70
2018-02-15T03:36:51.867Z,32.10
2018-02-15T03:39:19.851Z,34.08
2018-02-15T03:41:47.821Z,31.83
2018-02-15T03:44:15.761Z,32.13
2018-02-15T03:46:43.680Z,33.72
2018-02-15T03:49:11.781Z,32.47
2018-02-15T03:51:39.686Z,34.40
2018-02-15T03:54:07.677Z,30.98
2018-02-15T03:56:35.594Z,34.05
2018-02-15T03:59:03.564Z,33.95
2018-02-15T04:01:31.474Z,34.90
2018-02-15T04:03:59.529Z,36.00
2018-02-15T04:06:27.556Z,32.28
2018-02-15T04:08:55.489Z,35.55
2018-02-15T04:11:23.474Z,34.30
2018-02-15T04:13:51.389Z,31.83
2018-02-15T04:16:19.445Z,32.28
2018-02-15T04:18:47.360Z,33.28
2018-02-15T04:21:15.297Z,31.42
2018-02-15T04:23:43.337Z,31.77
2018-02-15T04:26:11.363Z,30.75
2018-02-15T04:28:39.385Z,31.87
2018-02-15T04:31:07.394Z,34.22
2018-02-15T04:33:35.463Z,32.63
2018-02-15T04:36:03.411Z,35.67
2018-02-15T04:38:31.433Z,32.78
2018-02-15T04:40:59.320Z,34.45
2018-02-15T04:43:27.305Z,33.15
2018-02-15T04:45:55.217Z,32.85
2018-02-15T04:48:23.123Z,31.42
2018-02-15T04:50:51.131Z,31.98
2018-02-15T04:53:19.138Z,31.55
2018-02-15T04:55:47.131Z,32.92
2018-02-15T04:58:15.048Z,33.13
2018-02-15T05:00:43.057Z,32.40
2018-02-15T05:03:11.030Z,32.03
2018-02-15T05:05:39.005Z,31.98
2018-02-15T05:08:06.934Z,30.37
2018-02-15T05:10:34.904Z,31.90
2018-02-15T05:13:02.897Z,31.67
2018-02-15T05:15:30.815Z,32.95
2018-02-15T05:17:58.753Z,29.65
2018-02-15T05:20:26.697Z,27.95
2018-02-15T05:22:54.658Z,28.92
2018-02-15T05:25:22.766Z,26.75
2018-02-15T05:27:50.752Z,27.85
2018-02-15T05:30:18.777Z,25.62
2018-02-15T05:32:46.676Z,25.90
2018-02-15T05:35:14.601Z,26.40
2018-02-15T05:37:42.527Z,24.23
2018-02-15T05:40:10.494Z,26.65
2018-02-15T05:42:38.465Z,25.60
2018-02-15T05:45:06.420Z,26.27
2018-02-15T05:47:34.404Z,27.33
2018-02-15T05:50:02.393Z,24.63
2018-02-15T05:52:30.417Z,26.95
2018-02-15T05:54:58.432Z,25.88
2018-02-15T05:57:26.560Z,26.52
2018-02-15T05:59:54.465Z,24.17
2018-02-15T06:02:22.386Z,25.65
2018-02-15T06:04:50.297Z,24.60
2018-02-15T06:07:18.249Z,25.33
2018-02-15T06:09:46.205Z,22.62
2018-02-15T06:12:14.135Z,27.08
2018-02-15T06:14:42.305Z,25.73
2018-02-15T06:17:10.213Z,25.30
2018-02-15T06:19:38.158Z,25.45
2018-02-15T06:22:06.058Z,29.73
2018-02-15T06:24:34.007Z,28.55
2018-02-15T06:27:01.885Z,32.47
2018-02-15T06:29:29.822Z,27.50
2018-02-15T06:31:57.912Z,26.12
2018-02-15T06:34:25.979Z,29.70
2018-02-15T06:36:53.856Z,28.60
2018-02-15T06:39:21.985Z,29.90
2018-02-15T06:41:49.904Z,28.83
2018-02-15T06:44:17.826Z,29.08
2018-02-15T06:46:45.937Z,27.52
2018-02-15T06:49:13.843Z,28.33
2018-02-15T06:51:41.769Z,30.30
2018-02-15T06:54:09.716Z,26.33
2018-02-15T06:56:37.621Z,31.75
2018-02-15T06:59:05.585Z,29.90
2018-02-15T07:01:33.489Z,27.83
2018-02-15T07:04:01.409Z,30.02
2018-02-15T07:06:29.349Z,26.15
2018-02-15T07:08:57.417Z,28.12
2018-02-15T07:11:25.333Z,24.23
2018-02-15T07:13:53.317Z,24.58
2018-02-15T07:16:21.326Z,23.85
2018-02-15T07:18:49.310Z,25.60
2018-02-15T07:21:17.239Z,23.73
2018-02-15T07:23:45.287Z,24.25
2018-02-15T07:26:13.217Z,23.52
2018-02-15T07:28:41.134Z,23.25
2018-02-15T07:31:09.060Z,22.35
2018-02-15T07:33:37.025Z,22.98
2018-02-15T07:36:05.171Z,23.12
2018-02-15T07:38:33.064Z,25.17
2018-02-15T07:41:00.961Z,21.05
2018-02-15T07:43:28.885Z,23.40
2018-02-15T07:45:56.807Z,22.58
2018-02-15T07:48:24.733Z,20.70
2018-02-15T07:50:52.651Z,23.15
2018-02-15T07:53:21.397Z,22.52
2018-02-15T07:55:49.322Z,22.35
2018-02-15T07:58:17.237Z,23.25
2018-02-15T08:00:45.217Z,22.13
2018-02-15T08:03:13.130Z,24.35
2018-02-15T08:05:41.056Z,23.80
2018-02-15T08:08:09.400Z,25.25
2018-02-15T08:10:38.108Z,25.25
2018-02-15T08:13:06.052Z,22.75
2018-02-15T08:15:34.109Z,23.00
2018-02-15T08:18:02.105Z,23.62
2018-02-15T08:20:30.356Z,24.73
2018-02-15T08:22:58.278Z,25.55
2018-02-15T08:25:26.273Z,25.83
2018-02-15T08:27:54.237Z,25.52
2018-02-15T08:30:22.189Z,26.05
2018-02-15T08:32:50.193Z,25.88
2018-02-15T08:35:18.144Z,28.30
2018-02-15T08:37:46.067Z,28.48
2018-02-15T08:40:13.989Z,26.98
2018-02-15T08:42:41.917Z,26.42
2018-02-15T08:45:09.963Z,28.10
2018-02-15T08:47:37.917Z,27.65
2018-02-15T08:50:05.901Z,27.05
2018-02-15T08:52:33.884Z,24.87
2018-02-15T08:55:01.796Z,27.60
2018-02-15T08:57:29.720Z,24.55
2018-02-15T08:59:57.650Z,28.85
2018-02-15T09:02:25.574Z,26.73
2018-02-15T09:04:53.590Z,27.02
2018-02-15T09:07:21.560Z,25.70
2018-02-15T09:09:49.475Z,26.27
2018-02-15T09:12:17.482Z,27.20
2018-02-15T09:14:46.169Z,24.55
2018-02-15T09:17:14.165Z,26.10
2018-02-15T09:19:42.160Z,23.87
2018-02-15T09:22:10.173Z,25.20
2018-02-15T09:24:38.457Z,24.50
2018-02-15T09:27:06.386Z,23.25
2018-02-15T09:29:34.317Z,26.00
2018-02-15T09:32:02.237Z,26.70
2018-02-15T09:34:30.195Z,25.90
2018-02-15T09:36:58.564Z,23.65
2018-02-15T09:39:26.490Z,27.13
2018-02-15T09:41:54.399Z,24.27
2018-02-15T09:44:22.369Z,24.23
2018-02-15T09:46:50.266Z,25.25
2018-02-15T09:49:18.196Z,25.73
2018-02-15T09:51:46.116Z,25.02
2018-02-15T09:54:14.051Z,26.00
2018-02-15T09:56:41.971Z,24.52
2018-02-15T09:59:09.977Z,23.52
2018-02-15T10:01:37.889Z,23.95
2018-02-15T10:04:05.857Z,23.00
2018-02-15T10:06:33.874Z,24.75
2018-02-15T10:09:01.820Z,24.95
2018-02-15T10:11:29.731Z,27.67
2018-02-15T10:13:57.677Z,27.37
2018-02-15T10:16:25.627Z,27.13
2018-02-15T10:18:53.552Z,26.70
2018-02-15T10:21:21.837Z,26.42
2018-02-15T10:23:49.765Z,27.70
2018-02-15T10:26:17.681Z,27.95
2018-02-15T10:28:45.607Z,27.10
2018-02-15T10:31:13.597Z,25.80
2018-02-15T10:33:41.530Z,23.15
2018-02-15T10:36:09.450Z,29.80
2018-02-15T10:38:37.384Z,27.33
2018-02-15T10:41:05.298Z,24.75
2018-02-15T10:43:33.225Z,29.05
2018-02-15T10:46:01.293Z,27.45
2018-02-15T10:48:29.296Z,25.42
2018-02-15T10:50:57.226Z,25.88
2018-02-15T10:53:25.148Z,24.97
2018-02-15T10:55:53.065Z,26.60
2018-02-15T10:58:20.973Z,26.95
2018-02-15T11:00:54.597Z,26.12
2018-02-15T11:03:28.258Z,25.83
2018-02-15T11:06:00.032Z,26.87
2018-02-15T11:08:27.948Z,27.10
2018-02-15T11:10:55.934Z,27.20
2018-02-15T11:13:23.872Z,25.50
2018-02-15T11:15:51.781Z,28.90
2018-02-15T11:18:19.704Z,25.75
2018-02-15T11:20:47.825Z,26.35
2018-02-15T11:23:15.738Z,28.90
2018-02-15T11:25:43.708Z,31.15
2018-02-15T11:28:11.648Z,26.55
2018-02-15T11:30:39.585Z,29.20
2018-02-15T11:33:07.514Z,28.55
2018-02-15T11:35:35.417Z,25.60
2018-02-15T11:38:03.330Z,29.85
2018-02-15T11:40:31.259Z,28.35
2018-02-15T11:42:59.177Z,27.55
2018-02-15T11:45:27.119Z,31.25
2018-02-15T11:47:55.517Z,27.70
2018-02-15T11:50:23.512Z,29.55
2018-02-15T11:52:51.405Z,26.37
2018-02-15T11:55:19.325Z,29.05
2018-02-15T11:57:47.297Z,28.25
2018-02-15T12:00:15.249Z,27.23
2018-02-15T12:02:43.197Z,28.65
2018-02-15T12:05:11.163Z,27.97
2018-02-15T12:07:39.024Z,28.40
2018-02-15T12:10:06.956Z,28.10
2018-02-15T12:12:34.896Z,28.03
2018-02-15T12:15:02.822Z,28.70
2018-02-15T12:17:30.829Z,28.23
2018-02-15T12:19:58.800Z,27.70
2018-02-15T12:22:26.717Z,30.60
2018-02-15T12:24:54.701Z,29.97
2018-02-15T12:27:22.749Z,30.23
2018-02-15T12:29:50.645Z,28.30
2018-02-15T12:32:18.562Z,31.87
2018-02-15T12:34:46.485Z,33.73
2018-02-15T12:37:14.573Z,28.00
2018-02-15T12:39:42.521Z,27.10
2018-02-15T12:42:10.561Z,28.70
2018-02-15T12:44:38.577Z,27.50
2018-02-15T12:47:06.532Z,27.13
2018-02-15T12:49:34.467Z,27.52
2018-02-15T12:52:02.373Z,26.85
2018-02-15T12:54:30.294Z,30.70
2018-02-15T12:56:59.057Z,30.20
2018-02-15T12:59:26.965Z,28.40
2018-02-15T13:01:54.881Z,27.70
2018-02-15T13:04:22.798Z,27.10
2018-02-15T13:06:50.848Z,29.87
2018-02-15T13:09:18.771Z,27.20
2018-02-15T13:11:46.688Z,28.67
2018-02-15T13:14:14.603Z,28.70
2018-02-15T13:16:59.114Z,28.83
2018-02-15T13:19:38.892Z,28.60
2018-02-15T13:25:02.133Z,27.70
2018-02-15T13:27:41.969Z,27.60
2018-02-15T13:30:09.879Z,27.57
2018-02-15T13:32:37.809Z,32.47
2018-02-15T13:35:05.728Z,27.40
2018-02-15T13:37:33.635Z,27.87
2018-02-15T13:40:01.573Z,28.00
2018-02-15T13:42:29.490Z,28.23
2018-02-15T13:44:57.560Z,25.30
2018-02-15T13:47:25.537Z,28.57
2018-02-15T13:49:53.457Z,27.80
2018-02-15T13:52:21.438Z,27.10
2018-02-15T13:54:49.343Z,25.70
2018-02-15T13:57:17.253Z,29.93
2018-02-15T13:59:45.191Z,28.30
2018-02-15T14:02:13.112Z,29.43
2018-02-15T14:04:41.024Z,26.40
2018-02-15T14:07:08.936Z,26.87
2018-02-15T14:09:36.910Z,26.92
2018-02-15T14:12:04.828Z,27.70
2018-02-15T14:14:32.758Z,28.00
2018-02-15T14:17:00.666Z,29.00
2018-02-15T14:19:28.609Z,31.93
2018-02-15T14:21:56.672Z,27.07
2018-02-15T14:24:24.573Z,29.73
2018-02-15T14:26:52.481Z,28.13
2018-02-15T14:29:20.576Z,28.60
2018-02-15T14:31:48.576Z,25.70
2018-02-15T14:34:16.477Z,28.30
2018-02-15T14:36:44.441Z,23.43
2018-02-15T14:39:12.345Z,27.10
2018-02-15T14:41:40.273Z,26.35
2018-02-15T14:44:08.182Z,26.43
2018-02-15T14:46:36.154Z,25.70
2018-02-15T14:49:04.060Z,23.27
2018-02-15T14:51:31.974Z,25.00
2018-02-15T14:54:00.536Z,23.90
2018-02-15T14:56:29.290Z,25.10
2018-02-15T14:58:57.196Z,25.43
2018-02-15T15:01:25.123Z,22.97
2018-02-15T15:03:53.028Z,25.20
2018-02-15T15:06:20.933Z,25.60
2018-02-15T15:08:48.866Z,27.20
2018-02-15T15:11:16.773Z,26.40
2018-02-15T15:13:44.701Z,26.03
2018-02-15T15:16:12.609Z,25.07
2018-02-15T15:18:40.630Z,25.92
2018-02-15T15:21:08.647Z,25.90
2018-02-15T15:23:36.585Z,24.60
2018-02-15T15:26:04.501Z,26.30
2018-02-15T15:28:32.427Z,26.50
2018-02-15T15:31:00.439Z,26.13
2018-02-15T15:33:28.507Z,26.50
2018-02-15T15:35:57.254Z,28.43
2018-02-15T15:38:25.167Z,25.80
2018-02-15T15:40:53.085Z,25.90
2018-02-15T15:43:21.773Z,24.57
2018-02-15T15:45:49.716Z,28.17
2018-02-15T15:48:18.280Z,26.73
2018-02-15T15:50:46.218Z,27.40
2018-02-15T15:53:14.164Z,27.13
2018-02-15T15:55:42.092Z,27.40
2018-02-15T15:58:10.013Z,27.70
2018-02-15T16:00:37.967Z,24.20
2018-02-15T16:03:05.865Z,26.17
2018-02-15T16:05:33.796Z,26.90
2018-02-15T16:08:01.726Z,26.57
2018-02-15T16:10:29.621Z,26.98
2018-02-15T16:12:57.558Z,28.93
2018-02-15T16:15:25.473Z,27.33
2018-02-15T16:17:53.398Z,29.20
2018-02-15T16:20:21.321Z,27.47
2018-02-15T16:22:49.358Z,28.47
2018-02-15T16:25:17.245Z,28.37
2018-02-15T16:27:45.158Z,27.55
2018-02-15T16:30:13.099Z,31.27
2018-02-15T16:32:41.015Z,27.15
2018-02-15T16:35:09.043Z,31.50
2018-02-15T16:37:37.046Z,27.67
2018-02-15T16:40:05.009Z,29.17
2018-02-15T16:42:32.947Z,28.63
2018-02-15T16:45:00.849Z,27.87
2018-02-15T16:47:28.782Z,30.60
2018-02-15T16:49:56.701Z,29.30
2018-02-15T16:52:24.766Z,28.00
2018-02-15T16:54:52.693Z,30.60
2018-02-15T16:57:20.615Z,31.43
2018-02-15T16:59:48.525Z,28.27
2018-02-15T17:02:16.455Z,30.97
2018-02-15T17:04:44.397Z,28.00
2018-02-15T17:07:12.319Z,29.40
2018-02-15T17:09:40.235Z,29.90
2018-02-15T17:12:08.149Z,29.87
2018-02-15T17:14:36.073Z,30.17
2018-02-15T17:17:03.991Z,30.23
2018-02-15T17:19:31.939Z,31.60
2018-02-15T17:21:59.874Z,28.90
2018-02-15T17:24:27.772Z,32.10
2018-02-15T17:26:55.693Z,30.73
2018-02-15T17:29:23.756Z,31.40
2018-02-15T17:31:51.773Z,31.90
2018-02-15T17:34:19.710Z,29.93
2018-02-15T17:36:47.602Z,32.67
2018-02-15T17:39:15.529Z,32.37
2018-02-15T17:41:43.442Z,30.27
2018-02-15T17:44:11.509Z,32.40
2018-02-15T17:46:39.625Z,29.80
2018-02-15T17:49:07.585Z,30.77
2018-02-15T17:51:35.517Z,31.33
2018-02-15T17:54:03.437Z,30.90
2018-02-15T17:56:31.381Z,31.65
2018-02-15T17:58:59.323Z,34.03
2018-02-15T18:01:27.285Z,32.75
2018-02-15T18:03:55.217Z,30.40
2018-02-15T18:06:23.166Z,29.93
2018-02-15T18:08:51.283Z,33.27
2018-02-15T18:11:19.216Z,29.93
2018-02-15T18:13:47.342Z,32.23
2018-02-15T18:16:15.388Z,29.40
2018-02-15T18:18:43.387Z,32.05
2018-02-15T18:21:11.409Z,32.17
2018-02-15T18:23:39.870Z,30.92
2018-02-15T18:26:07.822Z,31.33
2018-02-15T18:28:35.764Z,33.80
2018-02-15T18:31:03.674Z,32.50
2018-02-15T18:33:31.627Z,32.03
2018-02-15T18:35:59.741Z,31.77
2018-02-15T18:38:27.800Z,32.40
2018-02-15T18:40:55.744Z,31.23
2018-02-15T18:43:23.649Z,31.48
2018-02-15T18:45:51.585Z,33.53
2018-02-15T18:48:19.526Z,30.10
2018-02-15T18:50:47.528Z,30.52
2018-02-15T18:53:15.534Z,30.60
2018-02-15T18:55:43.480Z,32.97
2018-02-15T18:58:11.445Z,33.53
2018-02-15T19:00:39.418Z,31.25
2018-02-15T19:03:07.365Z,33.60
2018-02-15T19:05:35.314Z,32.38
2018-02-15T19:08:03.260Z,32.78
2018-02-15T19:10:31.311Z,32.33
2018-02-15T19:12:59.254Z,34.30
2018-02-15T19:15:27.166Z,33.27
2018-02-15T19:17:55.209Z,33.25
2018-02-15T19:20:23.200Z,34.90
2018-02-15T19:22:51.122Z,34.00
2018-02-15T19:25:19.058Z,33.75
2018-02-15T19:27:46.994Z,32.53
2018-02-15T19:30:14.986Z,38.77
2018-02-15T19:32:43.123Z,36.22
2018-02-15T19:35:11.144Z,35.03
2018-02-15T19:37:39.168Z,35.88
2018-02-15T19:40:07.157Z,37.50
2018-02-15T19:42:35.115Z,34.07
2018-02-15T19:45:03.259Z,37.10
2018-02-15T19:47:31.160Z,34.78
2018-02-15T19:49:59.126Z,35.05
2018-02-15T19:52:27.042Z,35.33
2018-02-15T19:54:55.438Z,35.60
2018-02-15T19:57:23.563Z,36.40
2018-02-15T19:59:51.526Z,35.67
2018-02-15T20:02:19.543Z,36.25
2018-02-15T20:04:47.567Z,35.67
2018-02-15T20:07:16.305Z,34.63
2018-02-15T20:09:44.210Z,38.17
2018-02-15T20:12:12.224Z,39.03
2018-02-15T20:14:40.317Z,39.33
2018-02-15T20:17:08.255Z,38.90
2018-02-15T20:19:36.190Z,35.20
2018-02-15T20:22:04.110Z,40.63
2018-02-15T20:24:32.115Z,39.20
2018-02-15T20:27:05.612Z,39.60
2018-02-15T20:29:33.562Z,38.17
2018-02-15T20:32:01.661Z,38.47
2018-02-15T20:34:29.688Z,40.70
2018-02-15T20:36:57.608Z,40.23
2018-02-15T20:39:31.131Z,39.03
2018-02-15T20:41:59.043Z,38.38
2018-02-15T20:44:26.976Z,36.35
2018-02-15T20:46:54.986Z,40.20
2018-02-15T20:49:28.430Z,44.00
2018-02-15T20:52:02.121Z,38.73
2018-02-15T20:54:35.650Z,39.67
2018-02-15T20:57:03.574Z,39.17
2018-02-15T20:59:31.489Z,43.33
2018-02-15T21:01:59.517Z,39.33
2018-02-15T21:04:27.493Z,40.50
2018-02-15T21:06:55.537Z,41.03
2018-02-15T21:09:23.461Z,40.20
2018-02-15T21:11:51.474Z,41.13
2018-02-15T21:14:19.408Z,39.43
2018-02-15T21:16:47.351Z,38.57
2018-02-15T21:19:15.259Z,38.80
2018-02-15T21:21:43.195Z,36.80
2018-02-15T21:24:11.209Z,39.75
2018-02-15T21:26:39.121Z,38.85
2018-02-15T21:29:07.302Z,41.90
2018-02-15T21:31:35.225Z,41.17
2018-02-15T21:34:03.225Z,40.47
2018-02-15T21:36:31.163Z,36.45
2018-02-15T21:38:59.095Z,39.77
2018-02-15T21:41:27.013Z,40.00
2018-02-15T21:43:54.942Z,36.95
2018-02-15T21:46:22.934Z,37.17
2018-02-15T21:48:50.846Z,38.67
2018-02-15T21:51:18.867Z,38.88
2018-02-15T21:53:46.776Z,37.53
2018-02-15T21:56:14.759Z,38.77
2018-02-15T21:58:42.676Z,37.63
2018-02-15T22:01:10.926Z,36.33
2018-02-15T22:03:38.858Z,34.60
2018-02-15T22:06:06.825Z,39.30
2018-02-15T22:08:34.812Z,36.78
2018-02-15T22:11:02.831Z,38.90
2018-02-15T22:13:30.742Z,35.20
2018-02-15T22:15:58.700Z,36.77
2018-02-15T22:18:26.606Z,39.33
2018-02-15T22:20:54.729Z,36.67
2018-02-15T22:23:22.641Z,37.80
2018-02-15T22:25:50.553Z,37.20
2018-02-15T22:28:18.661Z,40.10
2018-02-15T22:30:46.585Z,35.67
2018-02-15T22:33:14.543Z,36.43
2018-02-15T22:35:42.570Z,35.67
2018-02-15T22:38:10.657Z,36.20
2018-02-15T22:40:38.624Z,35.63
2018-02-15T22:43:06.670Z,34.60
2018-02-15T22:45:34.607Z,36.27
2018-02-15T22:48:02.609Z,37.00
2018-02-15T22:50:30.582Z,35.10
2018-02-15T22:52:58.514Z,37.37
2018-02-15T22:55:26.442Z,39.83
2018-02-15T22:57:54.439Z,39.50
2018-02-15T23:00:22.369Z,35.73
2018-02-15T23:02:50.963Z,37.33
2018-02-15T23:05:18.874Z,36.57
2018-02-15T23:07:46.968Z,39.85
2018-02-15T23:10:14.868Z,39.50
2018-02-15T23:12:42.785Z,35.87
2018-02-15T23:15:10.781Z,39.17
2018-02-15T23:17:38.723Z,38.77
2018-02-15T23:20:06.637Z,38.77
2018-02-15T23:22:34.645Z,37.67
2018-02-15T23:25:02.560Z,36.97
2018-02-15T23:27:30.518Z,39.20
2018-02-15T23:29:58.539Z,38.03
2018-02-15T23:32:26.430Z,38.00
2018-02-15T23:34:54.405Z,41.77
2018-02-15T23:37:22.640Z,38.67
2018-02-15T23:39:50.585Z,38.63
2018-02-15T23:42:18.492Z,40.43
2018-02-15T23:44:46.421Z,41.03
2018-02-15T23:47:14.552Z,39.53
2018-02-15T23:49:42.442Z,40.17
2018-02-15T23:52:10.392Z,40.17
2018-02-15T23:54:38.397Z,39.53
2018-02-15T23:57:06.505Z,36.60
2018-02-15T23:59:34.493Z,37.33
